createdAt,value
2022-11-29T00:00:47.553Z,96680.75
2022-11-29T00:03:14.901Z,96677.41
2022-11-29T00:05:41.570Z,96676.75
2022-11-29T00:08:08.163Z,96677.19
2022-11-29T00:10:37.556Z,96667.09
2022-11-29T00:13:04.457Z,96674.31
2022-11-29T00:15:31.102Z,96668.97
2022-11-29T00:17:57.725Z,96671.81
2022-11-29T00:20:24.413Z,96665.78
2022-11-29T00:22:51.129Z,96666.09
2022-11-29T00:25:17.763Z,96663.56
2022-11-29T00:27:44.338Z,96656.16
2022-11-29T00:30:11.232Z,96657.88
2022-11-29T00:32:37.809Z,96653.75
2022-11-29T00:35:09.459Z,96657.38
2022-11-29T00:37:36.544Z,96653.22
2022-11-29T00:40:04.001Z,96651.69
2022-11-29T00:42:30.627Z,96659.88
2022-11-29T00:44:57.379Z,96651.84
2022-11-29T00:47:24.025Z,96648.72
2022-11-29T00:49:50.662Z,96649.47
2022-11-29T00:52:17.260Z,96648.34
2022-11-29T00:54:44.200Z,96650.41
2022-11-29T00:57:11.028Z,96654.53
2022-11-29T00:59:37.618Z,96650.06
2022-11-29T01:02:04.255Z,96649.00
2022-11-29T01:04:30.885Z,96650.22
2022-11-29T01:06:57.479Z,96645.88
2022-11-29T01:09:24.121Z,96648.72
2022-11-29T01:11:50.756Z,96649.50
2022-11-29T01:14:17.464Z,96640.84
2022-11-29T01:16:44.121Z,96647.25
2022-11-29T01:19:10.826Z,96641.22
2022-11-29T01:21:37.507Z,96654.44
2022-11-29T01:24:04.237Z,96651.53
2022-11-29T01:26:30.831Z,96648.47
2022-11-29T01:31:41.459Z,96652.44
2022-11-29T01:34:08.199Z,96644.69
2022-11-29T01:36:34.794Z,96646.53
2022-11-29T01:39:01.587Z,96636.84
2022-11-29T01:41:29.878Z,96649.59
2022-11-29T01:44:12.600Z,96641.78
2022-11-29T01:46:42.664Z,96645.53
2022-11-29T01:49:18.092Z,96642.22
2022-11-29T01:51:50.393Z,96644.28
2022-11-29T01:54:17.155Z,96641.84
2022-11-29T01:56:44.079Z,96645.19
2022-11-29T01:59:12.825Z,96635.72
2022-11-29T02:01:39.483Z,96640.66
2022-11-29T02:04:06.260Z,96635.88
2022-11-29T02:06:32.888Z,96631.19
2022-11-29T02:08:59.530Z,96623.78
2022-11-29T02:11:53.080Z,96626.69
2022-11-29T02:14:40.965Z,96621.91
2022-11-29T02:17:30.931Z,96625.84
2022-11-29T02:20:34.439Z,96625.44
2022-11-29T02:23:30.046Z,96625.06
2022-11-29T02:26:24.890Z,96620.53
2022-11-29T02:29:19.824Z,96626.09
2022-11-29T02:31:58.859Z,96626.31
2022-11-29T02:34:25.302Z,96618.06
2022-11-29T02:37:11.807Z,96621.34
2022-11-29T02:39:56.827Z,96625.06
2022-11-29T02:42:29.487Z,96618.66
2022-11-29T02:45:10.361Z,96623.78
2022-11-29T02:47:47.442Z,96627.06
2022-11-29T02:50:29.347Z,96628.34
2022-11-29T02:53:18.623Z,96629.56
2022-11-29T02:56:10.279Z,96627.28
2022-11-29T02:58:42.804Z,96628.34
2022-11-29T03:01:21.342Z,96632.13
2022-11-29T03:04:00.445Z,96626.09
2022-11-29T03:06:45.128Z,96626.72
2022-11-29T03:09:23.808Z,96627.06
2022-11-29T03:12:39.818Z,96630.94
2022-11-29T03:15:24.655Z,96623.28
2022-11-29T03:17:54.228Z,96618.16
2022-11-29T03:20:35.933Z,96623.78
2022-11-29T03:23:24.717Z,96626.78
2022-11-29T03:25:58.188Z,96627.69
2022-11-29T03:28:29.375Z,96626.59
2022-11-29T03:31:06.924Z,96625.34
2022-11-29T03:33:55.095Z,96626.53
2022-11-29T03:36:33.634Z,96625.47
2022-11-29T03:39:03.565Z,96628.78
2022-11-29T03:41:36.576Z,96630.47
2022-11-29T03:44:03.062Z,96629.81
2022-11-29T03:46:48.310Z,96624.00
2022-11-29T03:49:24.845Z,96627.28
2022-11-29T03:52:29.003Z,96623.34
2022-11-29T03:54:55.457Z,96628.47
2022-11-29T03:57:25.518Z,96622.69
2022-11-29T03:59:57.049Z,96629.06
2022-11-29T04:02:55.280Z,96622.25
2022-11-29T04:05:43.149Z,96632.50
2022-11-29T04:08:40.596Z,96638.94
2022-11-29T04:11:19.209Z,96636.19
2022-11-29T04:13:59.719Z,96641.19
2022-11-29T04:16:47.652Z,96634.09
2022-11-29T04:19:38.971Z,96636.78
2022-11-29T04:22:20.228Z,96639.03
2022-11-29T04:25:06.595Z,96638.44
2022-11-29T04:27:39.092Z,96640.72
2022-11-29T04:30:20.625Z,96644.22
2022-11-29T04:33:24.535Z,96640.69
2022-11-29T04:36:35.222Z,96648.50
2022-11-29T04:39:22.985Z,96650.59
2022-11-29T04:41:57.729Z,96653.44
2022-11-29T04:45:06.408Z,96654.84
2022-11-29T04:48:10.494Z,96658.13
2022-11-29T04:50:51.006Z,96651.72
2022-11-29T04:53:38.701Z,96654.84
2022-11-29T04:56:17.781Z,96653.59
2022-11-29T04:58:51.864Z,96649.91
2022-11-29T05:01:53.456Z,96657.72
2022-11-29T05:04:42.058Z,96652.28
2022-11-29T05:07:18.028Z,96647.16
2022-11-29T05:10:08.937Z,96657.56
2022-11-29T05:12:54.649Z,96658.03
2022-11-29T05:15:30.135Z,96658.28
2022-11-29T05:18:15.073Z,96667.00
2022-11-29T05:20:57.705Z,96664.66
2022-11-29T05:23:47.502Z,96671.22
2022-11-29T05:26:13.980Z,96671.66
2022-11-29T05:28:44.177Z,96670.41
2022-11-29T05:31:16.842Z,96671.50
2022-11-29T05:33:56.532Z,96669.75
2022-11-29T05:36:48.321Z,96675.28
2022-11-29T05:39:56.884Z,96677.22
2022-11-29T05:42:46.605Z,96674.16
2022-11-29T05:45:18.294Z,96678.66
2022-11-29T05:48:18.730Z,96677.84
2022-11-29T05:51:01.044Z,96677.25
2022-11-29T05:53:50.879Z,96684.69
2022-11-29T05:56:23.336Z,96680.34
2022-11-29T05:59:20.821Z,96689.31
2022-11-29T06:01:50.180Z,96681.00
2022-11-29T06:04:29.048Z,96680.16
2022-11-29T06:07:11.848Z,96689.41
2022-11-29T06:09:50.852Z,96691.19
2022-11-29T06:12:21.330Z,96699.03
2022-11-29T06:15:09.121Z,96694.53
2022-11-29T06:18:06.569Z,96693.69
2022-11-29T06:20:54.323Z,96698.47
2022-11-29T06:23:42.159Z,96694.97
2022-11-29T06:26:30.132Z,96698.53
2022-11-29T06:29:25.433Z,96699.56
2022-11-29T06:32:19.767Z,96698.28
2022-11-29T06:35:02.379Z,96700.59
2022-11-29T06:37:49.374Z,96707.75
2022-11-29T06:40:16.115Z,96706.19
2022-11-29T06:42:42.886Z,96711.72
2022-11-29T06:45:13.555Z,96711.09
2022-11-29T06:47:44.028Z,96714.84
2022-11-29T06:50:47.997Z,96713.63
2022-11-29T06:53:32.942Z,96717.44
2022-11-29T06:56:26.597Z,96722.16
2022-11-29T06:58:56.172Z,96719.78
2022-11-29T07:01:41.629Z,96725.47
2022-11-29T07:04:24.839Z,96722.53
2022-11-29T07:06:51.720Z,96725.44
2022-11-29T07:09:20.149Z,96723.94
2022-11-29T07:11:47.237Z,96721.81
2022-11-29T07:14:14.044Z,96727.19
2022-11-29T07:16:54.457Z,96728.88
2022-11-29T07:19:35.711Z,96738.69
2022-11-29T07:22:14.492Z,96735.38
2022-11-29T07:24:50.967Z,96732.31
2022-11-29T07:27:20.127Z,96735.66
2022-11-29T07:29:50.659Z,96735.25
2022-11-29T07:32:23.291Z,96737.91
2022-11-29T07:35:05.349Z,96730.06
2022-11-29T07:37:56.015Z,96736.84
2022-11-29T07:40:27.655Z,96729.41
2022-11-29T07:43:06.178Z,96734.13
2022-11-29T07:45:33.655Z,96733.16
2022-11-29T07:48:00.291Z,96745.94
2022-11-29T07:50:27.076Z,96745.47
2022-11-29T07:52:53.892Z,96743.16
2022-11-29T07:55:21.033Z,96745.41
2022-11-29T07:57:48.208Z,96741.91
2022-11-29T08:00:15.199Z,96745.13
2022-11-29T08:02:41.953Z,96753.81
2022-11-29T08:05:09.136Z,96755.88
2022-11-29T08:07:36.671Z,96755.72
2022-11-29T08:10:04.705Z,96758.78
2022-11-29T08:12:31.271Z,96750.56
2022-11-29T08:14:57.943Z,96754.25
2022-11-29T08:17:24.546Z,96747.22
2022-11-29T08:19:51.327Z,96752.75
2022-11-29T08:22:19.188Z,96754.59
2022-11-29T08:24:46.007Z,96757.88
2022-11-29T08:27:12.874Z,96757.75
2022-11-29T08:29:39.512Z,96758.59
2022-11-29T08:32:06.337Z,96757.78
2022-11-29T08:34:34.192Z,96756.50
2022-11-29T08:37:00.882Z,96758.94
2022-11-29T08:39:27.486Z,96760.31
2022-11-29T08:41:54.128Z,96762.31
2022-11-29T08:44:20.832Z,96763.94
2022-11-29T08:46:47.449Z,96764.94
2022-11-29T08:49:14.047Z,96764.63
2022-11-29T08:51:40.684Z,96761.31
2022-11-29T08:54:07.345Z,96777.19
2022-11-29T08:59:20.690Z,96777.03
2022-11-29T09:01:47.358Z,96779.47
2022-11-29T09:04:14.232Z,96778.81
2022-11-29T09:06:41.588Z,96782.78
2022-11-29T09:09:08.257Z,96785.78
2022-11-29T09:11:35.181Z,96781.72
2022-11-29T09:14:03.523Z,96787.03
2022-11-29T09:16:33.136Z,96786.97
2022-11-29T09:18:59.788Z,96785.63
2022-11-29T09:21:27.314Z,96787.03
2022-11-29T09:23:54.250Z,96790.91
2022-11-29T09:26:20.855Z,96793.31
2022-11-29T09:28:47.488Z,96790.53
2022-11-29T09:31:15.276Z,96787.41
2022-11-29T09:33:42.029Z,96789.41
2022-11-29T09:36:10.348Z,96790.59
2022-11-29T09:38:37.031Z,96791.88
2022-11-29T09:41:06.757Z,96791.97
2022-11-29T09:43:37.370Z,96793.47
2022-11-29T09:46:22.326Z,96794.19
2022-11-29T09:49:29.793Z,96791.81
2022-11-29T09:52:26.650Z,96787.75
2022-11-29T09:55:13.398Z,96783.97
2022-11-29T09:57:40.048Z,96784.09
2022-11-29T10:00:10.925Z,96790.00
2022-11-29T10:02:42.468Z,96791.88
2022-11-29T10:05:15.260Z,96787.09
2022-11-29T10:07:46.190Z,96787.84
2022-11-29T10:10:22.777Z,96790.91
2022-11-29T10:12:52.764Z,96798.72
2022-11-29T10:15:23.892Z,96789.84
2022-11-29T10:18:16.560Z,96788.13
2022-11-29T10:20:48.637Z,96790.47
2022-11-29T10:23:24.341Z,96788.28
2022-11-29T10:25:52.514Z,96784.47
2022-11-29T10:28:26.507Z,96794.00
2022-11-29T10:30:53.938Z,96784.00
2022-11-29T10:33:30.675Z,96792.81
2022-11-29T10:35:59.742Z,96786.16
2022-11-29T10:38:31.248Z,96793.41
2022-11-29T10:41:06.438Z,96787.44
2022-11-29T10:43:33.041Z,96788.38
2022-11-29T10:45:59.650Z,96785.25
2022-11-29T10:48:28.613Z,96786.28
2022-11-29T10:50:55.205Z,96784.41
2022-11-29T10:53:31.888Z,96782.16
2022-11-29T10:56:16.528Z,96778.75
2022-11-29T10:58:56.491Z,96773.59
2022-11-29T11:01:23.363Z,96778.63
2022-11-29T11:03:53.188Z,96777.28
2022-11-29T11:06:44.628Z,96768.50
2022-11-29T11:09:14.434Z,96772.97
2022-11-29T11:11:41.061Z,96764.22
2022-11-29T11:14:31.330Z,96760.47
2022-11-29T11:17:13.947Z,96762.47
2022-11-29T11:19:40.566Z,96764.22
2022-11-29T11:22:07.222Z,96760.16
2022-11-29T11:24:36.920Z,96763.00
2022-11-29T11:27:03.600Z,96754.13
2022-11-29T11:29:36.170Z,96759.56
2022-11-29T11:32:02.811Z,96767.38
2022-11-29T11:34:34.320Z,96768.97
2022-11-29T11:37:15.901Z,96765.44
2022-11-29T11:39:43.037Z,96765.28
2022-11-29T11:42:14.466Z,96769.28
2022-11-29T11:44:47.205Z,96763.13
2022-11-29T11:47:19.765Z,96760.66
2022-11-29T11:49:58.762Z,96768.34
2022-11-29T11:52:27.586Z,96761.19
2022-11-29T11:54:59.071Z,96764.75
2022-11-29T11:57:26.383Z,96761.78
2022-11-29T11:59:54.244Z,96761.25
2022-11-29T12:02:36.724Z,96759.09
2022-11-29T12:05:05.216Z,96760.13
2022-11-29T12:08:06.239Z,96768.91
2022-11-29T12:10:26.910Z,96773.56
2022-11-29T12:12:53.618Z,96772.69
2022-11-29T12:15:21.168Z,96773.72
2022-11-29T12:17:51.732Z,96764.47
2022-11-29T12:20:27.017Z,96768.97
2022-11-29T12:22:53.540Z,96772.09
2022-11-29T12:25:25.641Z,96769.69
2022-11-29T12:27:52.318Z,96773.00
2022-11-29T12:30:19.051Z,96772.06
2022-11-29T12:33:01.427Z,96765.06
2022-11-29T12:35:43.543Z,96771.06
2022-11-29T12:38:33.201Z,96768.66
2022-11-29T12:41:02.594Z,96772.25
2022-11-29T12:44:00.443Z,96761.50
2022-11-29T12:46:28.008Z,96768.97
2022-11-29T12:49:10.075Z,96763.88
2022-11-29T12:51:51.809Z,96767.16
2022-11-29T12:54:40.123Z,96765.06
2022-11-29T12:57:18.859Z,96765.84
2022-11-29T13:00:04.002Z,96766.91
2022-11-29T13:02:49.459Z,96765.78
2022-11-29T13:05:41.598Z,96757.47
2022-11-29T13:08:12.541Z,96759.19
2022-11-29T13:10:57.358Z,96757.06
2022-11-29T13:13:31.131Z,96749.59
2022-11-29T13:16:30.904Z,96749.66
2022-11-29T13:19:13.775Z,96748.81
2022-11-29T13:21:42.947Z,96751.56
2022-11-29T13:24:32.471Z,96750.28
2022-11-29T13:27:01.735Z,96750.94
2022-11-29T13:29:28.387Z,96749.81
2022-11-29T13:31:54.991Z,96748.81
2022-11-29T13:34:32.623Z,96745.00
2022-11-29T13:37:31.124Z,96756.22
2022-11-29T13:40:17.696Z,96757.00
2022-11-29T13:43:15.146Z,96751.22
2022-11-29T13:45:51.209Z,96751.09
2022-11-29T13:48:45.790Z,96751.44
2022-11-29T13:51:28.620Z,96752.28
2022-11-29T13:53:55.708Z,96755.75
2022-11-29T13:56:39.316Z,96752.81
2022-11-29T13:59:07.474Z,96756.75
2022-11-29T14:01:45.327Z,96766.63
2022-11-29T14:04:34.705Z,96763.88
2022-11-29T14:07:09.522Z,96759.53
2022-11-29T14:09:43.467Z,96760.97
2022-11-29T14:12:32.993Z,96760.53
2022-11-29T14:15:14.839Z,96759.78
2022-11-29T14:18:27.490Z,96762.03
2022-11-29T14:20:55.177Z,96756.94
2022-11-29T14:23:50.951Z,96762.31
2022-11-29T14:26:28.097Z,96759.41
2022-11-29T14:28:55.314Z,96756.63
2022-11-29T14:31:47.381Z,96760.00
2022-11-29T14:34:14.037Z,96755.66
2022-11-29T14:37:19.161Z,96764.31
2022-11-29T14:39:46.873Z,96764.16
2022-11-29T14:42:18.081Z,96769.69
2022-11-29T14:44:47.254Z,96769.09
2022-11-29T14:47:22.911Z,96769.91
2022-11-29T14:49:49.645Z,96768.72
2022-11-29T14:52:22.344Z,96771.94
2022-11-29T14:54:54.897Z,96767.16
2022-11-29T14:57:49.685Z,96774.63
2022-11-29T15:00:34.710Z,96769.91
2022-11-29T15:03:02.218Z,96775.16
2022-11-29T15:05:34.999Z,96776.44
2022-11-29T15:08:15.352Z,96774.66
2022-11-29T15:10:49.721Z,96783.50
2022-11-29T15:13:22.708Z,96779.38
2022-11-29T15:16:26.596Z,96775.47
2022-11-29T15:19:09.080Z,96775.03
2022-11-29T15:22:13.057Z,96774.94
2022-11-29T15:25:12.656Z,96781.34
2022-11-29T15:28:04.035Z,96780.81
2022-11-29T15:30:38.749Z,96778.63
2022-11-29T15:33:18.111Z,96776.38
2022-11-29T15:35:51.494Z,96776.97
2022-11-29T15:38:19.167Z,96782.44
2022-11-29T15:40:52.924Z,96778.56
2022-11-29T15:43:23.395Z,96780.81
2022-11-29T15:45:51.310Z,96782.78
2022-11-29T15:48:33.272Z,96785.84
2022-11-29T15:51:11.459Z,96788.66
2022-11-29T15:53:50.731Z,96788.91
2022-11-29T15:56:54.976Z,96794.53
2022-11-29T15:59:38.673Z,96790.66
2022-11-29T16:02:15.616Z,96788.38
2022-11-29T16:04:46.524Z,96790.69
2022-11-29T16:07:13.826Z,96795.88
2022-11-29T16:09:45.149Z,96794.63
2022-11-29T16:12:14.039Z,96795.00
2022-11-29T16:14:51.412Z,96798.53
2022-11-29T16:17:19.441Z,96799.59
2022-11-29T16:19:46.238Z,96798.16
2022-11-29T16:22:12.805Z,96802.38
2022-11-29T16:25:00.493Z,96800.53
2022-11-29T16:27:27.151Z,96797.13
2022-11-29T16:29:53.789Z,96808.69
2022-11-29T16:32:41.508Z,96805.16
2022-11-29T16:35:13.800Z,96802.28
2022-11-29T16:37:42.385Z,96801.69
2022-11-29T16:40:21.130Z,96803.53
2022-11-29T16:43:03.068Z,96803.78
2022-11-29T16:45:31.824Z,96807.84
2022-11-29T16:47:58.680Z,96802.34
2022-11-29T16:50:28.826Z,96805.63
2022-11-29T16:52:56.976Z,96810.38
2022-11-29T16:55:23.834Z,96807.47
2022-11-29T16:57:50.464Z,96810.38
2022-11-29T17:00:28.817Z,96804.38
2022-11-29T17:02:55.582Z,96808.75
2022-11-29T17:05:22.255Z,96808.69
2022-11-29T17:07:48.918Z,96815.63
2022-11-29T17:10:18.040Z,96815.19
2022-11-29T17:12:48.042Z,96811.88
2022-11-29T17:15:15.141Z,96810.47
2022-11-29T17:17:42.510Z,96806.09
2022-11-29T17:20:11.295Z,96810.59
2022-11-29T17:22:37.945Z,96809.69
2022-11-29T17:25:04.785Z,96803.25
2022-11-29T17:27:31.416Z,96806.38
2022-11-29T17:29:58.048Z,96805.75
2022-11-29T17:32:26.896Z,96806.22
2022-11-29T17:34:53.898Z,96804.19
2022-11-29T17:37:20.519Z,96810.38
2022-11-29T17:39:47.330Z,96809.53
2022-11-29T17:42:14.167Z,96812.66
2022-11-29T17:44:41.120Z,96811.59
2022-11-29T17:47:07.827Z,96819.00
2022-11-29T17:49:34.455Z,96818.19
2022-11-29T17:52:01.258Z,96820.44
2022-11-29T17:54:27.838Z,96825.16
2022-11-29T17:56:54.477Z,96820.25
2022-11-29T17:59:21.121Z,96824.19
2022-11-29T18:01:47.893Z,96831.59
2022-11-29T18:04:14.663Z,96830.97
2022-11-29T18:06:41.636Z,96828.50
2022-11-29T18:09:09.255Z,96840.00
2022-11-29T18:11:46.983Z,96838.19
2022-11-29T18:14:24.250Z,96839.63
2022-11-29T18:16:51.198Z,96848.66
2022-11-29T18:19:18.982Z,96840.66
2022-11-29T18:21:45.610Z,96838.38
2022-11-29T18:24:12.271Z,96846.63
2022-11-29T18:26:38.973Z,96846.00
2022-11-29T18:29:06.155Z,96854.03
2022-11-29T18:31:34.678Z,96851.75
2022-11-29T18:34:02.287Z,96854.44
2022-11-29T18:36:30.617Z,96850.53
2022-11-29T18:39:01.204Z,96853.81
2022-11-29T18:41:28.324Z,96854.03
2022-11-29T18:43:59.714Z,96856.50
2022-11-29T18:46:26.770Z,96864.31
2022-11-29T18:48:53.410Z,96856.91
2022-11-29T18:51:20.467Z,96853.19
2022-11-29T18:53:47.353Z,96853.59
2022-11-29T18:56:24.280Z,96854.44
2022-11-29T18:58:58.498Z,96855.47
2022-11-29T19:01:29.491Z,96855.69
2022-11-29T19:03:57.667Z,96861.41
2022-11-29T19:06:25.889Z,96852.38
2022-11-29T19:08:52.540Z,96858.53
2022-11-29T19:11:20.775Z,96864.13
2022-11-29T19:13:47.667Z,96871.09
2022-11-29T19:16:16.159Z,96868.63
2022-11-29T19:18:42.951Z,96868.84
2022-11-29T19:21:13.830Z,96876.47
2022-11-29T19:23:40.678Z,96872.75
2022-11-29T19:26:11.340Z,96873.38
2022-11-29T19:28:38.695Z,96871.94
2022-11-29T19:31:05.602Z,96870.69
2022-11-29T19:33:33.177Z,96862.66
2022-11-29T19:36:14.066Z,96868.25
2022-11-29T19:38:40.788Z,96872.34
2022-11-29T19:41:31.207Z,96869.66
2022-11-29T19:43:58.915Z,96877.28
2022-11-29T19:46:29.852Z,96886.94
2022-11-29T19:48:56.952Z,96877.69
2022-11-29T19:51:23.881Z,96874.19
2022-11-29T19:53:54.157Z,96875.22
2022-11-29T19:56:20.832Z,96874.19
2022-11-29T19:58:47.677Z,96874.59
2022-11-29T20:01:15.225Z,96872.75
2022-11-29T20:03:42.111Z,96873.16
2022-11-29T20:06:09.247Z,96874.38
2022-11-29T20:08:36.657Z,96872.53
2022-11-29T20:11:13.221Z,96885.50
2022-11-29T20:13:40.214Z,96883.25
2022-11-29T20:16:13.667Z,96883.25
2022-11-29T20:18:44.611Z,96882.84
2022-11-29T20:21:25.994Z,96886.13
2022-11-29T20:24:02.687Z,96882.44
2022-11-29T20:26:29.999Z,96883.88
2022-11-29T20:28:56.635Z,96882.03
2022-11-29T20:31:23.535Z,96879.16
2022-11-29T20:33:51.458Z,96880.59
2022-11-29T20:36:36.665Z,96885.31
2022-11-29T20:39:40.011Z,96881.59
2022-11-29T20:42:25.605Z,96879.94
2022-11-29T20:44:53.650Z,96875.66
2022-11-29T20:47:41.561Z,96880.78
2022-11-29T20:50:08.368Z,96877.06
2022-11-29T20:52:56.714Z,96876.25
2022-11-29T20:55:23.525Z,96882.00
2022-11-29T20:57:50.311Z,96882.44
2022-11-29T21:00:17.092Z,96889.84
2022-11-29T21:02:43.761Z,96889.44
2022-11-29T21:05:10.480Z,96891.06
2022-11-29T21:07:37.166Z,96889.00
2022-11-29T21:10:04.657Z,96896.63
2022-11-29T21:12:31.625Z,96888.16
2022-11-29T21:14:58.535Z,96892.28
2022-11-29T21:17:33.178Z,96891.88
2022-11-29T21:20:00.889Z,96888.63
2022-11-29T21:22:49.195Z,96893.34
2022-11-29T21:25:26.264Z,96893.34
2022-11-29T21:27:53.413Z,96883.03
2022-11-29T21:30:21.641Z,96887.78
2022-11-29T21:32:48.499Z,96888.59
2022-11-29T21:35:15.389Z,96885.09
2022-11-29T21:37:42.060Z,96890.66
2022-11-29T21:40:09.136Z,96886.53
2022-11-29T21:42:36.227Z,96894.78
2022-11-29T21:45:03.946Z,96893.94
2022-11-29T21:47:31.940Z,96893.13
2022-11-29T21:49:58.560Z,96894.75
2022-11-29T21:52:25.208Z,96899.13
2022-11-29T21:54:51.808Z,96889.44
2022-11-29T21:57:18.416Z,96896.03
2022-11-29T21:59:45.059Z,96893.75
2022-11-29T22:02:11.841Z,96893.13
2022-11-29T22:04:38.588Z,96891.47
2022-11-29T22:07:05.260Z,96888.19
2022-11-29T22:09:32.413Z,96893.13
2022-11-29T22:11:59.242Z,96887.34
2022-11-29T22:14:25.852Z,96891.47
2022-11-29T22:16:56.785Z,96889.00
2022-11-29T22:19:24.080Z,96883.03
2022-11-29T22:21:52.961Z,96884.06
2022-11-29T22:24:20.937Z,96891.66
2022-11-29T22:26:47.835Z,96892.69
2022-11-29T22:29:14.615Z,96885.31
2022-11-29T22:31:42.023Z,96895.34
2022-11-29T22:34:08.668Z,96896.19
2022-11-29T22:36:35.676Z,96902.97
2022-11-29T22:39:02.306Z,96898.03
2022-11-29T22:41:28.984Z,96903.78
2022-11-29T22:43:55.859Z,96913.69
2022-11-29T22:46:23.492Z,96909.34
2022-11-29T22:48:51.255Z,96904.59
2022-11-29T22:51:19.503Z,96907.06
2022-11-29T22:53:50.535Z,96904.16
2022-11-29T22:56:17.556Z,96908.69
2022-11-29T22:58:44.546Z,96903.53
2022-11-29T23:01:12.958Z,96908.69
2022-11-29T23:03:41.231Z,96904.78
2022-11-29T23:06:08.856Z,96899.41
2022-11-29T23:08:35.757Z,96909.63
2022-11-29T23:11:02.658Z,96909.03
2022-11-29T23:13:29.286Z,96903.47
2022-11-29T23:15:55.877Z,96901.16
2022-11-29T23:18:22.535Z,96901.16
2022-11-29T23:20:49.161Z,96897.88
2022-11-29T23:23:15.964Z,96889.91
2022-11-29T23:25:48.901Z,96893.81
2022-11-29T23:28:16.531Z,96894.22
2022-11-29T23:30:43.108Z,96892.00
2022-11-29T23:33:09.738Z,96892.84
2022-11-29T23:35:36.478Z,96888.13
2022-11-29T23:38:03.080Z,96888.13
2022-11-29T23:40:29.674Z,96887.72
2022-11-29T23:42:56.275Z,96885.88
2022-11-29T23:45:22.982Z,96894.53
2022-11-29T23:47:49.681Z,96892.69
2022-11-29T23:50:16.404Z,96885.50
2022-11-29T23:52:42.999Z,96880.53
2022-11-29T23:55:16.774Z,96887.97
2022-11-29T23:57:46.406Z,96888.59
